Time;durP1;ratioP1;P1;durP2;ratioP2;P2;SDS_P1;SDS_P2;PMS_P1;PMS_P2;Temp;Humidity;BMP_temperature;BMP_pressure;BME280_temperature;BME280_humidity;BME280_pressure;Samples;Min_cycle;Max_cycle;Signal;HPM_P1;HPM_P2
2021/06/21 00:01:46;;;;;;;14.43;13.13;;;27.10;99.90;;;;;;5074602;28;20531;-52
2021/06/21 00:04:12;;;;;;;13.93;12.53;;;27.00;99.90;;;;;;5075008;28;21162;-50
2021/06/21 00:06:39;;;;;;;14.47;13.17;;;26.90;99.90;;;;;;5075085;28;20756;-51
2021/06/21 00:09:06;;;;;;;22.63;14.20;;;26.90;99.90;;;;;;5074945;28;20438;-53
2021/06/21 00:11:33;;;;;;;14.60;13.13;;;26.90;99.90;;;;;;5074495;28;20462;-50
2021/06/21 00:14:00;;;;;;;14.93;12.57;;;26.90;99.90;;;;;;5074144;28;20442;-51
2021/06/21 00:16:30;;;;;;;14.37;12.83;;;26.90;99.90;;;;;;5074776;28;20504;-53
2021/06/21 00:18:57;;;;;;;14.87;13.27;;;26.80;99.90;;;;;;5074733;28;20528;-50
2021/06/21 00:21:24;;;;;;;13.57;12.13;;;26.80;99.90;;;;;;5074813;28;20446;-54
2021/06/21 00:23:51;;;;;;;18.50;12.43;;;26.70;99.90;;;;;;5074654;28;20765;-48
2021/06/21 00:26:17;;;;;;;14.80;12.70;;;26.60;99.90;;;;;;5074626;28;20451;-46
2021/06/21 00:28:44;;;;;;;14.47;12.97;;;26.50;99.90;;;;;;5074972;28;20500;-47
2021/06/21 00:31:11;;;;;;;15.10;13.50;;;26.40;99.90;;;;;;5074762;28;20446;-48
2021/06/21 00:33:38;;;;;;;19.83;13.90;;;26.40;99.90;;;;;;5075165;28;20449;-47
2021/06/21 00:36:07;;;;;;;13.80;12.40;;;26.30;99.90;;;;;;5074832;28;20454;-52
2021/06/21 00:38:33;;;;;;;19.43;12.60;;;26.30;99.90;;;;;;5073476;28;20508;-52
2021/06/21 00:41:00;;;;;;;14.90;13.20;;;26.30;99.90;;;;;;5073652;28;20458;-55
2021/06/21 00:43:27;;;;;;;19.93;13.73;;;26.20;99.90;;;;;;5073701;28;20523;-52
2021/06/21 00:45:53;;;;;;;16.93;14.23;;;26.20;99.90;;;;;;5073946;28;20572;-50
2021/06/21 00:48:20;;;;;;;14.43;12.83;;;26.10;99.90;;;;;;5073596;28;20500;-53
2021/06/21 00:50:46;;;;;;;15.70;14.07;;;26.00;99.90;;;;;;5057959;28;20526;-52
2021/06/21 00:53:15;;;;;;;15.60;12.07;;;25.90;99.90;;;;;;5053506;28;20923;-54
2021/06/21 00:55:42;;;;;;;14.73;13.33;;;25.90;99.90;;;;;;5054406;28;20479;-53
2021/06/21 00:58:09;;;;;;;12.83;11.63;;;25.90;99.90;;;;;;5073663;28;20481;-51
2021/06/21 01:00:35;;;;;;;13.17;11.57;;;25.80;99.90;;;;;;5073192;28;20482;-54
2021/06/21 01:03:04;;;;;;;14.10;12.67;;;25.80;99.90;;;;;;5062545;28;20474;-50
2021/06/21 01:05:35;;;;;;;15.13;13.70;;;25.70;99.90;;;;;;5053058;28;20970;-53
2021/06/21 01:08:02;;;;;;;18.00;14.00;;;25.70;99.90;;;;;;5053238;28;20451;-52
2021/06/21 01:10:30;;;;;;;15.80;13.60;;;25.60;99.90;;;;;;5053534;28;20542;-49
2021/06/21 01:13:34;;;;;;;16.73;13.60;;;25.60;99.90;;;;;;5053183;28;20788;-52
2021/06/21 01:16:10;;;;;;;14.67;13.27;;;25.50;99.90;;;;;;5053354;28;20438;-54
2021/06/21 01:18:39;;;;;;;15.77;13.90;;;25.50;99.90;;;;;;5053097;28;20500;-51
2021/06/21 01:21:39;;;;;;;21.10;14.93;;;25.50;99.90;;;;;;5053192;28;20471;-53
2021/06/21 01:24:50;;;;;;;17.50;13.30;;;25.40;99.90;;;;;;4989754;28;20442;-52
2021/06/21 01:27:33;;;;;;;14.90;13.30;;;25.30;99.90;;;;;;5055430;28;20442;-53
2021/06/21 01:30:06;;;;;;;14.63;13.13;;;25.30;99.90;;;;;;5056931;28;20447;-46
2021/06/21 02:30:26;;;;;;;13.67;12.27;;;25.20;99.90;;;;;;5658600;22;20462;-52
2021/06/21 02:32:53;;;;;;;15.50;14.10;;;25.20;99.90;;;;;;5100613;28;20443;-50
2021/06/21 02:35:20;;;;;;;15.27;13.87;;;25.10;99.90;;;;;;5078177;28;20523;-52
2021/06/21 02:37:47;;;;;;;18.73;12.90;;;25.10;99.90;;;;;;5075486;28;20474;-52
2021/06/21 02:40:16;;;;;;;16.23;14.27;;;25.00;99.90;;;;;;5075544;28;20462;-52
2021/06/21 02:42:43;;;;;;;14.37;12.90;;;24.90;99.90;;;;;;5075721;28;20454;-53
2021/06/21 02:45:11;;;;;;;15.37;13.83;;;24.90;99.90;;;;;;5075881;28;20442;-48
2021/06/21 02:47:40;;;;;;;17.60;15.60;;;24.80;99.90;;;;;;5075611;28;20789;-50
2021/06/21 02:50:08;;;;;;;15.83;14.40;;;24.70;99.90;;;;;;5075396;28;20923;-51
2021/06/21 02:52:45;;;;;;;17.00;14.87;;;24.50;99.90;;;;;;5075412;28;20443;-52
2021/06/21 02:55:18;;;;;;;19.93;15.60;;;24.30;99.90;;;;;;5075638;28;20518;-53
2021/06/21 02:58:00;;;;;;;18.13;16.33;;;24.20;99.90;;;;;;5075237;28;20458;-52
2021/06/21 03:05:40;;;;;;;17.10;15.30;;;24.20;99.90;;;;;;5514062;22;20505;-53
2021/06/21 03:08:11;;;;;;;18.17;16.23;;;24.20;99.90;;;;;;5075196;28;21000;-50
2021/06/21 03:10:39;;;;;;;18.50;16.47;;;24.10;99.90;;;;;;5075467;28;20836;-51
2021/06/21 03:13:07;;;;;;;18.37;14.77;;;24.20;99.90;;;;;;5075042;28;20438;-54
2021/06/21 03:15:34;;;;;;;20.93;16.93;;;24.20;99.90;;;;;;5074862;28;20512;-51
2021/06/21 03:18:02;;;;;;;18.30;16.50;;;24.10;99.90;;;;;;5064890;28;20463;-53
2021/06/21 03:20:30;;;;;;;17.63;16.00;;;24.10;99.90;;;;;;5054720;28;20908;-51
2021/06/21 03:23:00;;;;;;;17.30;15.70;;;24.10;99.90;;;;;;5054780;28;20514;-53
2021/06/21 04:07:14;;;;;;;6.90;6.20;;;23.70;99.90;;;;;;6198935;22;20445;-52
2021/06/21 04:09:41;;;;;;;10.00;6.70;;;23.70;99.90;;;;;;5080646;28;20451;-52
2021/06/21 04:12:08;;;;;;;8.50;7.43;;;23.70;99.90;;;;;;5076919;28;20505;-49
2021/06/21 04:14:35;;;;;;;9.70;8.03;;;23.70;99.90;;;;;;5074037;28;20836;-53
2021/06/21 04:17:02;;;;;;;10.60;8.57;;;23.70;99.90;;;;;;5074068;28;20446;-48
2021/06/21 04:19:29;;;;;;;9.47;8.57;;;23.70;99.90;;;;;;5073904;28;20449;-54
2021/06/21 04:21:55;;;;;;;13.60;9.37;;;23.80;99.90;;;;;;5074037;28;20532;-54
2021/06/21 04:24:23;;;;;;;11.00;9.90;;;23.80;99.90;;;;;;5073768;28;20465;-51
2021/06/21 04:26:50;;;;;;;14.13;11.93;;;23.90;99.90;;;;;;5073654;28;20904;-52
2021/06/21 04:29:17;;;;;;;17.00;12.13;;;23.90;99.90;;;;;;5073839;28;20474;-53
2021/06/21 04:31:43;;;;;;;12.40;11.20;;;24.00;99.90;;;;;;5073807;28;20462;-53
2021/06/21 04:34:10;;;;;;;13.80;12.50;;;24.00;99.90;;;;;;5073615;28;20480;-52
2021/06/21 04:36:37;;;;;;;16.40;14.80;;;24.00;99.90;;;;;;5073666;28;20450;-52
2021/06/21 04:39:04;;;;;;;17.10;13.97;;;24.10;99.90;;;;;;5073791;28;20489;-52
2021/06/21 04:41:32;;;;;;;16.40;14.73;;;24.10;99.90;;;;;;5073443;28;20961;-54
2021/06/21 04:43:58;;;;;;;15.83;14.30;;;24.10;99.90;;;;;;5073696;28;20446;-53
2021/06/21 04:46:26;;;;;;;17.80;13.97;;;24.20;99.90;;;;;;5073820;28;20442;-51
2021/06/21 04:48:53;;;;;;;16.10;14.10;;;24.20;99.90;;;;;;5073567;28;20945;-53
2021/06/21 04:51:20;;;;;;;15.27;13.60;;;24.30;99.90;;;;;;5073758;28;20450;-52
2021/06/21 04:53:48;;;;;;;16.97;14.30;;;24.30;99.90;;;;;;5073452;28;20446;-51
2021/06/21 04:56:15;;;;;;;14.27;13.00;;;24.40;99.90;;;;;;5073374;28;20442;-52
2021/06/21 04:58:43;;;;;;;14.37;12.90;;;24.50;99.90;;;;;;5073783;28;20439;-52
2021/06/21 05:01:10;;;;;;;16.20;12.53;;;24.50;99.90;;;;;;5075426;28;20516;-51
2021/06/21 05:03:37;;;;;;;16.67;13.03;;;24.50;99.90;;;;;;5077763;28;20442;-55
2021/06/21 05:06:04;;;;;;;14.17;11.90;;;24.50;99.90;;;;;;5077423;28;20801;-50
2021/06/21 05:08:31;;;;;;;14.13;12.50;;;24.60;99.90;;;;;;5077198;28;20516;-53
2021/06/21 05:10:58;;;;;;;15.93;12.30;;;24.60;99.90;;;;;;5077596;28;20511;-52
2021/06/21 05:13:24;;;;;;;14.83;12.90;;;24.60;99.90;;;;;;5077339;28;20476;-50
2021/06/21 05:15:53;;;;;;;13.23;12.03;;;24.60;99.90;;;;;;5077289;28;20575;-52
2021/06/21 05:18:19;;;;;;;13.03;11.73;;;24.60;99.90;;;;;;5077072;28;20946;-51
2021/06/21 05:49:15;;;;;;;17.67;13.20;;;25.00;99.90;;;;;;5097144;28;20504;-51
2021/06/21 05:51:42;;;;;;;14.63;13.13;;;25.00;99.90;;;;;;5096808;28;20441;-54
2021/06/21 05:54:09;;;;;;;14.93;12.50;;;25.00;99.90;;;;;;5097001;28;20449;-53
2021/06/21 05:56:35;;;;;;;15.30;14.00;;;25.00;99.90;;;;;;5097205;28;20449;-49
2021/06/21 05:59:03;;;;;;;17.73;14.00;;;25.00;99.90;;;;;;5091224;28;20511;-53
2021/06/21 06:01:29;;;;;;;15.83;14.23;;;25.10;99.90;;;;;;5096897;28;20470;-53
2021/06/21 06:03:56;;;;;;;14.30;12.90;;;25.20;99.90;;;;;;5096442;28;20449;-52
2021/06/21 06:06:24;;;;;;;15.93;14.23;;;25.30;99.90;;;;;;5096838;28;20438;-54
2021/06/21 06:08:50;;;;;;;17.03;13.80;;;25.40;99.90;;;;;;5096303;28;20477;-55
2021/06/21 06:11:17;;;;;;;16.13;13.00;;;25.50;99.90;;;;;;5096632;28;20457;-54
2021/06/21 06:13:44;;;;;;;14.73;13.33;;;25.60;99.90;;;;;;5095482;28;20976;-51
2021/06/21 06:16:10;;;;;;;18.30;13.93;;;25.70;99.90;;;;;;5096495;28;20445;-50
2021/06/21 06:18:37;;;;;;;14.27;12.90;;;25.80;99.90;;;;;;5096408;28;20479;-53
2021/06/21 06:28:51;;;;;;;16.80;15.00;;;26.10;99.90;;;;;;5384039;22;20988;-49
2021/06/21 06:31:18;;;;;;;16.30;14.10;;;26.20;99.90;;;;;;5116710;28;20441;-54
2021/06/21 06:33:44;;;;;;;16.20;14.67;;;26.40;99.90;;;;;;5117177;28;20509;-46
2021/06/21 06:36:11;;;;;;;14.70;13.30;;;26.50;99.90;;;;;;5116504;28;20513;-51
2021/06/21 06:38:38;;;;;;;13.80;12.50;;;26.50;99.90;;;;;;5129803;28;20483;-51
2021/06/21 06:41:05;;;;;;;16.93;14.77;;;26.70;99.90;;;;;;5140136;28;20436;-46
2021/06/21 06:43:35;;;;;;;14.97;13.33;;;26.80;99.90;;;;;;5140540;28;20444;-48
2021/06/21 06:46:03;;;;;;;16.53;14.83;;;26.90;99.90;;;;;;5137797;28;20451;-49
2021/06/21 06:48:30;;;;;;;15.47;14.17;;;27.00;99.90;;;;;;5112649;28;20483;-47
2021/06/21 06:50:57;;;;;;;18.07;15.73;;;26.90;99.90;;;;;;5109198;28;20498;-49
2021/06/21 06:53:34;;;;;;;16.43;14.97;;;26.90;99.90;;;;;;5107150;28;20449;-49
2021/06/21 06:58:44;;;;;;;17.50;15.60;;;27.00;99.90;;;;;;5115842;28;20866;-50
2021/06/21 07:01:12;;;;;;;15.47;13.97;;;27.10;99.90;;;;;;5116424;28;20456;-49
2021/06/21 07:03:41;;;;;;;15.20;13.60;;;27.10;99.90;;;;;;5115956;28;20506;-49
2021/06/21 07:06:08;;;;;;;18.13;14.87;;;27.10;99.90;;;;;;5100720;28;20442;-48
2021/06/21 07:08:36;;;;;;;15.60;14.10;;;27.20;99.90;;;;;;5106951;28;20548;-48
2021/06/21 07:11:02;;;;;;;20.90;17.10;;;27.30;99.90;;;;;;5114786;28;20443;-51
2021/06/21 07:13:33;;;;;;;19.67;15.30;;;27.50;99.90;;;;;;5121351;28;20440;-52
2021/06/21 07:16:00;;;;;;;21.23;17.40;;;27.60;99.90;;;;;;5114833;28;20434;-49
2021/06/21 07:18:30;;;;;;;16.50;14.60;;;27.80;99.90;;;;;;5116597;28;20782;-49
2021/06/21 07:20:57;;;;;;;15.53;14.00;;;28.60;99.90;;;;;;5114881;28;20598;-44
2021/06/21 07:23:24;;;;;;;15.27;12.93;;;29.80;99.90;;;;;;5116888;28;20445;-46
2021/06/21 07:25:51;;;;;;;22.67;13.40;;;31.30;99.90;;;;;;5115317;28;20456;-47
2021/06/21 07:28:18;;;;;;;14.67;12.87;;;32.50;99.90;;;;;;5110060;28;20672;-50
2021/06/21 07:30:45;;;;;;;21.80;17.63;;;33.50;99.90;;;;;;5120563;28;20441;-48
2021/06/21 07:33:13;;;;;;;16.57;13.50;;;34.20;96.90;;;;;;5116018;28;20524;-49
2021/06/21 07:35:41;;;;;;;15.20;12.77;;;34.50;95.10;;;;;;5106927;28;20480;-50
2021/06/21 07:38:08;;;;;;;14.30;12.90;;;34.20;93.80;;;;;;5111883;28;20444;-50
2021/06/21 07:40:35;;;;;;;15.23;13.33;;;34.30;93.20;;;;;;5115368;28;20889;-48
2021/06/21 07:43:03;;;;;;;16.87;13.00;;;34.60;92.30;;;;;;5119226;28;20445;-46
2021/06/21 07:45:31;;;;;;;13.60;11.97;;;35.00;90.60;;;;;;5112790;28;20432;-46
2021/06/21 07:47:59;;;;;;;15.17;13.70;;;35.50;87.90;;;;;;5113438;28;20518;-49
2021/06/21 07:50:28;;;;;;;13.97;12.67;;;35.90;85.50;;;;;;5117238;28;20509;-51
2021/06/21 07:52:58;;;;;;;13.27;11.97;;;36.30;82.70;;;;;;5117480;28;20433;-46
2021/06/21 07:55:27;;;;;;;11.47;10.37;;;36.80;79.60;;;;;;5127796;28;20498;-50
2021/06/21 07:57:55;;;;;;;12.03;11.00;;;37.30;76.50;;;;;;5112617;28;20460;-47
2021/06/21 08:00:23;;;;;;;9.60;8.70;;;37.70;73.00;;;;;;5122016;28;20432;-53
2021/06/21 08:02:51;;;;;;;10.10;9.10;;;38.00;70.30;;;;;;5126641;28;20441;-47
2021/06/21 08:05:18;;;;;;;9.70;8.67;;;38.20;67.70;;;;;;5119857;28;20472;-48
2021/06/21 08:07:45;;;;;;;9.97;8.97;;;38.50;65.90;;;;;;5113687;28;20434;-47
2021/06/21 08:10:14;;;;;;;9.20;8.40;;;38.40;65.00;;;;;;5110325;28;20480;-45
2021/06/21 08:12:42;;;;;;;9.00;8.20;;;38.40;63.80;;;;;;5114459;28;20428;-49
2021/06/21 08:15:11;;;;;;;9.13;8.00;;;38.40;62.50;;;;;;5117506;28;20436;-48
2021/06/21 08:17:40;;;;;;;8.87;7.97;;;38.40;62.10;;;;;;5110837;28;20446;-45
2021/06/21 08:20:10;;;;;;;9.57;7.70;;;38.50;61.20;;;;;;5112413;28;20828;-48
2021/06/21 08:22:37;;;;;;;8.10;7.30;;;38.70;60.40;;;;;;5120427;28;20954;-50
2021/06/21 08:25:06;;;;;;;9.77;7.60;;;38.60;59.30;;;;;;5117584;28;20482;-49
2021/06/21 08:27:35;;;;;;;11.77;6.67;;;38.70;59.30;;;;;;5111339;28;20464;-49
2021/06/21 08:30:02;;;;;;;9.40;6.77;;;38.60;58.70;;;;;;5121449;28;20479;-46
2021/06/21 08:32:31;;;;;;;8.80;6.63;;;38.70;58.00;;;;;;5114468;28;20964;-47
2021/06/21 08:34:58;;;;;;;13.30;6.27;;;38.70;58.00;;;;;;5114593;28;20437;-50
2021/06/21 08:37:25;;;;;;;16.07;5.20;;;38.80;57.40;;;;;;5114606;28;20472;-49
2021/06/21 08:39:53;;;;;;;7.33;4.97;;;38.60;56.40;;;;;;5104225;28;20974;-46
2021/06/21 08:42:21;;;;;;;10.20;5.70;;;38.70;55.90;;;;;;5111811;28;20472;-47
2021/06/21 08:44:50;;;;;;;7.37;5.37;;;38.50;55.60;;;;;;5108701;28;20440;-51
2021/06/21 08:47:19;;;;;;;11.70;5.53;;;38.30;55.50;;;;;;5101274;28;20468;-47
2021/06/21 08:49:49;;;;;;;6.47;4.93;;;38.10;56.10;;;;;;5113102;28;20488;-48
2021/06/21 08:52:18;;;;;;;8.50;4.90;;;38.00;56.60;;;;;;5109402;28;20444;-47
2021/06/21 08:54:46;;;;;;;9.10;5.30;;;38.00;56.80;;;;;;5108020;28;20446;-49
2021/06/21 08:57:15;;;;;;;9.57;6.67;;;38.10;56.30;;;;;;5113657;28;20467;-46
2021/06/21 08:59:42;;;;;;;9.20;4.33;;;37.80;56.70;;;;;;5106657;28;20449;-45
2021/06/21 09:02:17;;;;;;;12.07;6.17;;;38.00;56.60;;;;;;5118287;28;20436;-46
2021/06/21 09:04:46;;;;;;;7.30;3.90;;;38.30;55.40;;;;;;5099686;28;20448;-49
2021/06/21 09:07:20;;;;;;;5.20;3.70;;;38.40;54.00;;;;;;5107017;28;20457;-46
2021/06/21 09:09:48;;;;;;;6.23;3.07;;;38.70;53.80;;;;;;5113690;28;20485;-49
2021/06/21 09:12:21;;;;;;;6.77;4.10;;;38.90;52.80;;;;;;5104249;28;20452;-47
2021/06/21 09:14:48;;;;;;;4.60;2.90;;;39.30;52.20;;;;;;5111010;28;20499;-47
2021/06/21 09:17:20;;;;;;;5.13;2.70;;;38.60;52.50;;;;;;5116231;28;20505;-48
2021/06/21 09:19:52;;;;;;;6.60;3.03;;;38.30;53.50;;;;;;5109774;28;20551;-50
2021/06/21 09:22:34;;;;;;;4.27;2.70;;;38.20;53.50;;;;;;5114773;28;20535;-51
2021/06/21 09:25:05;;;;;;;4.17;2.93;;;38.00;54.10;;;;;;5107366;28;20504;-48
2021/06/21 09:27:33;;;;;;;6.27;2.90;;;38.00;54.10;;;;;;5104354;28;20485;-47
2021/06/21 09:30:05;;;;;;;3.60;2.97;;;38.20;54.90;;;;;;5121705;28;20477;-48
2021/06/21 09:32:46;;;;;;;3.80;2.77;;;38.50;54.00;;;;;;5118234;28;20453;-47
2021/06/21 09:35:40;;;;;;;5.13;3.13;;;38.60;52.80;;;;;;5113982;28;20460;-51
2021/06/21 09:38:14;;;;;;;3.80;2.83;;;38.70;52.30;;;;;;5103333;28;20902;-46
2021/06/21 09:40:42;;;;;;;4.63;3.50;;;38.90;52.20;;;;;;5110342;28;20436;-46
2021/06/21 09:43:21;;;;;;;6.80;3.53;;;38.50;52.60;;;;;;5108854;28;20770;-45
2021/06/21 09:46:11;;;;;;;3.37;3.00;;;38.10;53.30;;;;;;5111350;28;20885;-47
2021/06/21 09:48:44;;;;;;;3.87;3.40;;;37.40;54.40;;;;;;5108216;28;20987;-49
2021/06/21 09:51:30;;;;;;;5.37;3.03;;;36.90;55.60;;;;;;5111793;28;20563;-48
2021/06/21 09:54:01;;;;;;;9.23;4.20;;;36.50;56.20;;;;;;5109367;28;20445;-48
2021/06/21 09:56:39;;;;;;;8.73;4.27;;;35.70;57.30;;;;;;5116123;28;20759;-52
2021/06/21 09:59:24;;;;;;;5.90;4.07;;;35.10;58.90;;;;;;5100557;28;20461;-46
2021/06/21 10:02:08;;;;;;;6.13;5.03;;;35.30;59.00;;;;;;5105654;28;20476;-46
2021/06/21 10:04:38;;;;;;;6.80;4.60;;;35.60;58.60;;;;;;5114103;28;20441;-46
2021/06/21 10:07:06;;;;;;;5.40;4.00;;;36.00;58.40;;;;;;5118664;28;20440;-46
2021/06/21 10:09:34;;;;;;;7.07;4.20;;;36.50;57.60;;;;;;5117661;28;20476;-51
2021/06/21 10:12:01;;;;;;;5.00;3.60;;;37.10;56.60;;;;;;5122812;28;20444;-50
2021/06/21 10:14:28;;;;;;;4.50;3.80;;;37.30;55.40;;;;;;5109614;28;20456;-46
2021/06/21 10:16:57;;;;;;;7.80;3.83;;;37.50;55.30;;;;;;5118509;28;20812;-50
2021/06/21 10:19:25;;;;;;;5.27;3.87;;;37.40;55.00;;;;;;5110317;28;20464;-50
2021/06/21 10:21:55;;;;;;;8.83;4.40;;;37.40;55.30;;;;;;5105858;28;20453;-49
2021/06/21 10:24:26;;;;;;;5.73;4.00;;;37.50;54.70;;;;;;5112086;28;20456;-51
2021/06/21 10:26:55;;;;;;;6.10;4.10;;;37.20;55.40;;;;;;5122326;28;20523;-45
2021/06/21 10:29:22;;;;;;;5.83;4.00;;;37.00;56.00;;;;;;5108382;28;20530;-47
2021/06/21 10:31:49;;;;;;;6.40;4.20;;;36.60;56.20;;;;;;5114440;28;20462;-45
2021/06/21 10:34:18;;;;;;;5.40;3.83;;;36.30;57.40;;;;;;5114112;28;20809;-46
2021/06/21 10:36:48;;;;;;;7.03;4.57;;;36.30;57.60;;;;;;5117082;28;20460;-46
2021/06/21 10:39:18;;;;;;;5.97;4.60;;;36.30;58.00;;;;;;5102920;28;20446;-47
2021/06/21 10:42:17;;;;;;;5.53;4.63;;;36.30;58.50;;;;;;5112714;28;20818;-48
2021/06/21 10:44:48;;;;;;;6.57;4.40;;;36.00;58.50;;;;;;5114907;28;20541;-49
2021/06/21 10:47:40;;;;;;;5.63;3.97;;;35.50;59.50;;;;;;5113593;28;20449;-47
2021/06/21 10:50:10;;;;;;;5.70;4.00;;;35.00;61.20;;;;;;5088587;28;20508;-51
2021/06/21 10:52:43;;;;;;;8.30;4.33;;;34.90;61.80;;;;;;5115157;28;20465;-53
2021/06/21 10:55:47;;;;;;;5.53;3.80;;;34.80;61.20;;;;;;5109174;28;20445;-47
2021/06/21 10:58:42;;;;;;;6.43;4.30;;;34.10;62.80;;;;;;5109985;28;20452;-51
2021/06/21 11:01:21;;;;;;;5.53;4.50;;;34.00;63.80;;;;;;5111053;28;20445;-50
2021/06/21 11:03:48;;;;;;;5.20;4.10;;;33.90;64.20;;;;;;5102389;28;20477;-53
2021/06/21 11:06:41;;;;;;;5.20;4.67;;;33.60;64.70;;;;;;5114924;28;20444;-48
2021/06/21 11:09:10;;;;;;;10.63;5.60;;;33.40;64.70;;;;;;5113480;28;20448;-48
2021/06/21 11:11:51;;;;;;;4.60;4.10;;;33.00;65.60;;;;;;5117194;28;20473;-49
2021/06/21 11:14:22;;;;;;;11.10;4.50;;;32.70;67.30;;;;;;5122729;28;20437;-46
2021/06/21 11:16:50;;;;;;;4.70;4.20;;;32.60;67.60;;;;;;5113338;28;20461;-50
2021/06/21 11:19:33;;;;;;;11.73;4.63;;;32.70;66.60;;;;;;5113799;28;20468;-47
2021/06/21 11:22:03;;;;;;;9.40;4.70;;;32.50;67.10;;;;;;5109435;28;20512;-47
2021/06/21 11:24:53;;;;;;;3.70;3.40;;;32.60;67.30;;;;;;5108686;28;20452;-49
2021/06/21 11:27:23;;;;;;;7.33;4.33;;;32.60;66.90;;;;;;5108127;28;20481;-52
2021/06/21 11:29:54;;;;;;;6.80;3.97;;;32.60;67.30;;;;;;5109861;28;20480;-52
2021/06/21 11:32:22;;;;;;;4.83;3.83;;;32.50;67.30;;;;;;5110229;28;20454;-51
2021/06/21 11:34:52;;;;;;;4.50;3.67;;;32.50;67.40;;;;;;5105950;28;20445;-49
2021/06/21 11:37:29;;;;;;;11.80;7.30;;;32.60;67.90;;;;;;5107823;28;20461;-51
2021/06/21 11:40:26;;;;;;;8.13;4.60;;;32.70;68.10;;;;;;5110694;28;20508;-49
2021/06/21 11:43:16;;;;;;;6.20;3.43;;;32.70;66.60;;;;;;5109054;28;20442;-45
2021/06/21 11:45:57;;;;;;;7.43;3.63;;;32.70;67.30;;;;;;5112862;28;20460;-47
2021/06/21 11:48:35;;;;;;;7.67;3.77;;;32.50;67.90;;;;;;5104556;28;20437;-47
2021/06/21 11:51:10;;;;;;;5.77;3.70;;;32.40;67.50;;;;;;5109245;28;20977;-49
2021/06/21 11:53:41;;;;;;;6.93;3.50;;;32.30;68.00;;;;;;5115289;28;20918;-50
2021/06/21 11:56:08;;;;;;;9.90;4.10;;;32.40;67.30;;;;;;5105793;28;20891;-47
2021/06/21 11:58:35;;;;;;;8.43;4.00;;;32.30;67.80;;;;;;5114203;28;20552;-49
2021/06/21 12:01:16;;;;;;;8.00;3.77;;;32.20;68.60;;;;;;5107293;28;20441;-50
2021/06/21 12:03:44;;;;;;;3.20;2.90;;;32.20;68.60;;;;;;5113845;28;20747;-48
2021/06/21 12:06:13;;;;;;;15.43;6.10;;;32.20;66.90;;;;;;5105873;28;20445;-49
2021/06/21 12:08:41;;;;;;;12.53;9.40;;;32.20;68.90;;;;;;5104811;28;20540;-50
2021/06/21 12:11:14;;;;;;;11.60;3.77;;;32.30;68.70;;;;;;5116136;28;20498;-50
2021/06/21 12:13:42;;;;;;;5.17;3.17;;;32.30;68.80;;;;;;5111670;28;20474;-47
2021/06/21 12:16:15;;;;;;;9.17;3.73;;;32.20;68.70;;;;;;5119923;28;20921;-48
2021/06/21 12:18:42;;;;;;;5.53;4.33;;;32.20;68.40;;;;;;5101509;28;20476;-46
2021/06/21 12:21:09;;;;;;;8.70;4.00;;;32.30;69.30;;;;;;5112417;28;20449;-49
2021/06/21 12:23:36;;;;;;;8.17;3.90;;;32.40;68.90;;;;;;5115541;28;20445;-48
2021/06/21 12:26:03;;;;;;;8.23;4.27;;;32.50;67.80;;;;;;5109780;28;20949;-47
2021/06/21 12:28:30;;;;;;;9.40;3.90;;;32.50;67.80;;;;;;5106775;28;20473;-46
2021/06/21 12:30:59;;;;;;;8.00;4.27;;;32.50;67.40;;;;;;5089499;28;20471;-46
2021/06/21 12:33:34;;;;;;;9.90;4.70;;;32.60;67.00;;;;;;5103875;28;20912;-46
2021/06/21 12:36:16;;;;;;;12.13;4.53;;;32.50;66.20;;;;;;5104300;28;20498;-47
2021/06/21 12:38:54;;;;;;;7.07;4.20;;;32.40;66.90;;;;;;5102643;28;20936;-48
2021/06/21 12:41:23;;;;;;;8.53;4.33;;;32.30;66.70;;;;;;5113850;28;20445;-49
2021/06/21 12:43:55;;;;;;;9.83;4.03;;;32.30;67.30;;;;;;5099847;28;20481;-47
2021/06/21 12:46:23;;;;;;;7.73;4.43;;;32.30;68.30;;;;;;5115995;28;20448;-50
2021/06/21 12:48:53;;;;;;;7.37;3.33;;;32.40;67.80;;;;;;5116326;28;20491;-47
2021/06/21 12:51:20;;;;;;;5.73;3.10;;;32.50;67.70;;;;;;5118566;28;20476;-48
2021/06/21 12:53:51;;;;;;;7.30;3.80;;;32.70;67.30;;;;;;5116425;28;20428;-52
2021/06/21 12:56:27;;;;;;;8.80;4.10;;;32.80;66.30;;;;;;5107003;28;20429;-50
2021/06/21 12:58:54;;;;;;;8.10;3.80;;;32.80;66.00;;;;;;5119712;28;20432;-52
2021/06/21 13:01:26;;;;;;;6.80;4.13;;;32.80;64.90;;;;;;5103932;28;20545;-48
2021/06/21 13:03:55;;;;;;;8.17;3.80;;;32.70;64.80;;;;;;5116255;28;20457;-50
2021/06/21 13:06:35;;;;;;;14.50;9.90;;;32.60;65.50;;;;;;5113545;28;20448;-50
2021/06/21 13:09:07;;;;;;;7.50;4.67;;;32.30;66.10;;;;;;5116162;28;20448;-47
2021/06/21 13:11:48;;;;;;;8.03;3.93;;;32.00;66.30;;;;;;5106743;28;20952;-46
2021/06/21 13:14:16;;;;;;;6.77;3.33;;;32.10;67.10;;;;;;5108212;28;20428;-49
2021/06/21 13:16:43;;;;;;;11.03;3.87;;;32.20;65.70;;;;;;5113535;28;20445;-51
2021/06/21 13:19:16;;;;;;;6.30;3.63;;;32.30;64.20;;;;;;5110874;28;20442;-51
2021/06/21 13:21:44;;;;;;;5.00;3.80;;;32.30;63.70;;;;;;5111023;28;20765;-50
2021/06/21 13:24:13;;;;;;;18.10;9.30;;;32.40;63.90;;;;;;5111333;28;20451;-51
2021/06/21 13:26:42;;;;;;;9.00;3.60;;;32.40;63.70;;;;;;5103772;28;20803;-50
2021/06/21 13:29:20;;;;;;;11.67;3.67;;;32.40;63.80;;;;;;5104440;28;20477;-49
2021/06/21 13:31:48;;;;;;;5.83;3.53;;;32.50;62.70;;;;;;5104879;28;20491;-50
2021/06/21 13:34:36;;;;;;;7.03;3.70;;;32.40;62.20;;;;;;5110076;28;20464;-52
2021/06/21 13:37:03;;;;;;;5.93;3.40;;;32.50;63.50;;;;;;5107229;28;20445;-49
2021/06/21 13:39:30;;;;;;;9.47;4.37;;;32.60;62.20;;;;;;5112313;28;20857;-46
2021/06/21 13:41:58;;;;;;;12.37;3.67;;;32.70;61.90;;;;;;5111378;28;20471;-52
2021/06/21 13:44:25;;;;;;;10.37;3.73;;;32.50;62.30;;;;;;5112959;28;20511;-46
2021/06/21 13:46:51;;;;;;;7.40;3.83;;;32.40;64.20;;;;;;5111111;28;20437;-46
2021/06/21 13:49:22;;;;;;;14.60;4.10;;;32.10;62.10;;;;;;5107838;28;20536;-47
2021/06/21 13:51:57;;;;;;;12.10;4.50;;;31.90;63.10;;;;;;5116106;28;20476;-46
2021/06/21 13:54:28;;;;;;;8.93;3.30;;;32.00;63.90;;;;;;5119024;28;20440;-50
2021/06/21 13:57:06;;;;;;;11.30;3.73;;;32.20;64.30;;;;;;5125938;28;20441;-48
2021/06/21 13:59:46;;;;;;;7.40;3.37;;;32.40;63.30;;;;;;5113390;28;20791;-49
2021/06/21 14:02:30;;;;;;;6.20;3.17;;;32.50;62.30;;;;;;5116795;28;20470;-45
2021/06/21 14:04:58;;;;;;;11.43;3.47;;;32.50;62.70;;;;;;5123694;28;20433;-52
2021/06/21 14:07:25;;;;;;;5.50;3.30;;;32.60;63.10;;;;;;5121218;28;20459;-52
2021/06/21 14:09:53;;;;;;;10.47;4.03;;;32.60;62.30;;;;;;5110066;28;20795;-46
2021/06/21 14:12:20;;;;;;;9.07;3.70;;;32.60;62.20;;;;;;5113088;28;20814;-51
2021/06/21 14:14:47;;;;;;;7.67;5.77;;;32.50;61.90;;;;;;5105916;28;21049;-51
2021/06/21 14:17:13;;;;;;;5.20;3.73;;;32.60;61.40;;;;;;5117492;28;20441;-48
2021/06/21 14:19:40;;;;;;;8.90;3.47;;;32.50;61.30;;;;;;5105742;28;20445;-47
2021/06/21 14:22:08;;;;;;;9.73;5.87;;;32.50;60.90;;;;;;5105806;28;20448;-47
2021/06/21 14:24:35;;;;;;;8.67;5.30;;;32.70;61.60;;;;;;5116924;28;20456;-47
2021/06/21 14:27:02;;;;;;;11.37;7.23;;;32.80;60.30;;;;;;5117884;28;20848;-47
2021/06/21 14:29:32;;;;;;;7.87;3.90;;;32.80;59.90;;;;;;5116238;28;20748;-47
2021/06/21 14:31:59;;;;;;;7.10;3.33;;;32.80;59.60;;;;;;5113015;28;20487;-46
2021/06/21 14:34:25;;;;;;;6.90;3.10;;;32.80;59.60;;;;;;5110005;28;20441;-50
2021/06/21 14:36:53;;;;;;;6.33;3.03;;;32.90;59.60;;;;;;5109138;28;20488;-48
2021/06/21 14:39:27;;;;;;;10.27;3.50;;;32.90;59.10;;;;;;5109754;28;20445;-47
2021/06/21 14:41:56;;;;;;;7.33;3.60;;;33.00;59.10;;;;;;5115659;28;20439;-50
2021/06/21 14:44:22;;;;;;;6.10;3.97;;;33.00;58.90;;;;;;5116675;28;20445;-51
2021/06/21 14:46:49;;;;;;;6.33;3.30;;;33.00;57.80;;;;;;5106605;28;20517;-51
2021/06/21 14:49:17;;;;;;;5.43;3.37;;;33.00;58.30;;;;;;5108467;28;20453;-49
2021/06/21 14:51:43;;;;;;;5.87;2.90;;;32.90;57.50;;;;;;5108893;28;20473;-50
2021/06/21 14:54:11;;;;;;;9.43;3.90;;;32.80;58.00;;;;;;5110239;28;20884;-49
2021/06/21 14:56:39;;;;;;;6.13;3.80;;;32.70;58.50;;;;;;5115514;28;20481;-50
2021/06/21 14:59:06;;;;;;;5.80;3.20;;;32.60;57.90;;;;;;5113011;28;20501;-48
2021/06/21 15:01:33;;;;;;;6.50;3.43;;;32.40;57.50;;;;;;5109600;28;20430;-50
2021/06/21 15:04:00;;;;;;;4.23;3.40;;;32.30;57.80;;;;;;5111036;28;20482;-47
2021/06/21 15:06:27;;;;;;;4.80;3.13;;;32.30;59.20;;;;;;5113598;28;20454;-49
2021/06/21 15:08:56;;;;;;;7.97;3.13;;;32.30;59.60;;;;;;5103516;28;20446;-47
2021/06/21 15:11:26;;;;;;;6.57;3.30;;;32.40;60.70;;;;;;5104778;28;20495;-51
2021/06/21 15:13:55;;;;;;;6.03;3.10;;;32.40;60.30;;;;;;5107083;28;20456;-50
2021/06/21 15:16:21;;;;;;;7.03;3.77;;;32.40;59.70;;;;;;5106146;28;20453;-48
2021/06/21 15:18:48;;;;;;;5.80;2.87;;;32.20;59.90;;;;;;5115092;28;20912;-49